createdAt,value
2019-03-25T00:01:25.995Z,102271.67
2019-03-25T00:03:53.595Z,102265.77
2019-03-25T00:06:21.176Z,102261.86
2019-03-25T00:08:48.829Z,102261.39
2019-03-25T00:11:16.412Z,102252.30
2019-03-25T00:13:44.031Z,102246.33
2019-03-25T00:16:11.676Z,102241.55
2019-03-25T00:18:39.366Z,102240.48
2019-03-25T00:21:06.964Z,102234.67
2019-03-25T00:23:34.590Z,102236.70
2019-03-25T00:26:02.292Z,102232.52
2019-03-25T00:28:29.869Z,102219.19
2019-03-25T00:30:57.669Z,102216.80
2019-03-25T00:33:25.259Z,102213.17
2019-03-25T00:35:52.834Z,102207.35
2019-03-25T00:38:58.413Z,102204.14
2019-03-25T00:41:26.016Z,102202.33
2019-03-25T00:43:53.611Z,102195.60
2019-03-25T00:46:21.352Z,102184.56
2019-03-25T00:48:49.016Z,102185.66
2019-03-25T00:51:16.622Z,102188.25
2019-03-25T00:53:44.255Z,102183.83
2019-03-25T00:56:11.858Z,102179.42
2019-03-25T00:58:39.489Z,102174.62
2019-03-25T01:01:07.112Z,102173.64
2019-03-25T01:03:34.701Z,102169.73
2019-03-25T01:06:02.304Z,102168.23
2019-03-25T01:08:29.984Z,102169.16
2019-03-25T01:10:57.607Z,102169.19
2019-03-25T01:13:27.052Z,102167.19
2019-03-25T01:15:54.781Z,102170.10
2019-03-25T01:18:22.385Z,102165.69
2019-03-25T01:20:49.985Z,102164.69
2019-03-25T01:23:17.738Z,102161.57
2019-03-25T01:25:45.355Z,102146.21
2019-03-25T01:28:12.964Z,102151.93
2019-03-25T01:30:40.619Z,102150.72
2019-03-25T01:33:08.232Z,102145.60
2019-03-25T01:35:35.840Z,102133.24
2019-03-25T01:38:03.613Z,102139.97
2019-03-25T01:40:31.216Z,102139.86
2019-03-25T01:43:20.375Z,102126.89
2019-03-25T01:45:47.969Z,102134.61
2019-03-25T01:48:15.574Z,102120.66
2019-03-25T01:50:43.199Z,102117.02
2019-03-25T01:53:10.784Z,102119.74
2019-03-25T01:55:38.367Z,102107.06
2019-03-25T01:58:06.023Z,102119.01
2019-03-25T02:00:33.832Z,102112.36
2019-03-25T02:03:01.434Z,102111.95
2019-03-25T02:05:29.060Z,102108.63
2019-03-25T02:07:56.679Z,102102.78
2019-03-25T02:10:24.287Z,102103.88
2019-03-25T02:12:52.033Z,102104.47
2019-03-25T02:15:19.613Z,102094.51
2019-03-25T02:17:47.205Z,102088.03
2019-03-25T02:20:25.839Z,102082.50
2019-03-25T02:22:44.569Z,102082.19
2019-03-25T02:25:20.695Z,102083.98
2019-03-25T02:27:42.413Z,102084.30
2019-03-25T02:30:10.107Z,102066.28
2019-03-25T02:32:37.723Z,102067.59
2019-03-25T02:35:05.782Z,102058.79
2019-03-25T02:37:33.403Z,102064.83
2019-03-25T02:40:01.000Z,102054.05
2019-03-25T02:42:28.634Z,102054.68
2019-03-25T02:44:56.256Z,102059.72
2019-03-25T02:47:23.855Z,102054.91
2019-03-25T02:49:51.565Z,102053.59
2019-03-25T02:52:19.196Z,102035.08
2019-03-25T02:54:46.736Z,102034.77
2019-03-25T02:57:14.353Z,102026.92
2019-03-25T02:59:41.963Z,102034.95
2019-03-25T03:02:09.550Z,102031.44
2019-03-25T03:04:37.196Z,102032.65
2019-03-25T03:07:04.883Z,102032.38
2019-03-25T03:09:32.472Z,102043.70
2019-03-25T03:12:00.271Z,102040.27
2019-03-25T03:14:27.846Z,102035.04
2019-03-25T03:16:55.453Z,102034.14
2019-03-25T03:19:23.078Z,102028.69
2019-03-25T03:21:50.666Z,102016.02
2019-03-25T03:24:18.254Z,102013.31
2019-03-25T03:26:45.896Z,102018.64
2019-03-25T03:29:13.467Z,102014.77
2019-03-25T03:31:41.170Z,102020.98
2019-03-25T03:34:08.778Z,102029.53
2019-03-25T03:36:36.392Z,102021.88
2019-03-25T03:39:05.437Z,102049.25
2019-03-25T03:41:33.067Z,102042.44
2019-03-25T03:44:00.977Z,102033.95
2019-03-25T03:46:28.658Z,102040.44
2019-03-25T03:48:56.283Z,102041.09
2019-03-25T03:51:23.945Z,102043.52
2019-03-25T03:53:51.727Z,102042.06
2019-03-25T03:56:19.438Z,102045.89
2019-03-25T03:59:49.070Z,102036.95
2019-03-25T04:02:16.745Z,102035.15
2019-03-25T04:04:44.308Z,102016.00
2019-03-25T04:07:11.917Z,102027.16
2019-03-25T04:09:39.567Z,102025.47
2019-03-25T04:12:07.152Z,102029.29
2019-03-25T04:14:34.741Z,102052.79
2019-03-25T04:17:02.506Z,102063.45
2019-03-25T04:19:30.221Z,102059.53
2019-03-25T04:21:57.818Z,102075.32
2019-03-25T04:24:25.577Z,102078.76
2019-03-25T04:26:53.175Z,102074.56
2019-03-25T04:29:20.755Z,102058.18
2019-03-25T04:31:48.367Z,102043.44
2019-03-25T04:34:16.204Z,102049.36
2019-03-25T04:36:43.787Z,102048.86
2019-03-25T04:39:11.361Z,102050.66
2019-03-25T04:41:39.298Z,102044.05
2019-03-25T04:44:06.877Z,102049.36
2019-03-25T04:46:34.458Z,102045.55
2019-03-25T04:49:02.072Z,102050.36
2019-03-25T04:51:29.699Z,102044.34
2019-03-25T04:54:15.443Z,102042.23
2019-03-25T04:56:43.034Z,102043.64
2019-03-25T04:59:10.739Z,102036.72
2019-03-25T05:01:38.364Z,102046.05
2019-03-25T05:04:05.962Z,102055.97
2019-03-25T05:06:33.552Z,102058.78
2019-03-25T05:09:01.191Z,102052.77
2019-03-25T05:11:30.904Z,102055.77
2019-03-25T05:13:58.271Z,102051.45
2019-03-25T05:16:25.907Z,102055.06
2019-03-25T05:18:53.505Z,102053.66
2019-03-25T05:21:21.135Z,102059.67
2019-03-25T05:23:48.718Z,102059.28
2019-03-25T05:26:16.370Z,102067.80
2019-03-25T05:28:43.927Z,102074.72
2019-03-25T05:31:11.506Z,102075.13
2019-03-25T05:33:39.102Z,102072.52
2019-03-25T05:36:06.762Z,102074.83
2019-03-25T05:38:34.360Z,102067.61
2019-03-25T05:41:01.953Z,102065.00
2019-03-25T05:43:30.788Z,102067.52
2019-03-25T05:45:58.388Z,102063.00
2019-03-25T05:48:25.958Z,102069.52
2019-03-25T05:50:53.626Z,102066.71
2019-03-25T05:53:21.260Z,102070.82
2019-03-25T05:55:49.028Z,102063.50
2019-03-25T05:58:16.658Z,102068.12
2019-03-25T06:00:44.359Z,102072.83
2019-03-25T06:03:11.988Z,102074.44
2019-03-25T06:05:39.672Z,102074.94
2019-03-25T06:08:09.081Z,102078.25
2019-03-25T06:10:36.710Z,102078.45
2019-03-25T06:13:04.299Z,102074.56
2019-03-25T06:15:31.889Z,102078.98
2019-03-25T06:17:59.537Z,102083.70
2019-03-25T06:20:28.442Z,102083.89
2019-03-25T06:22:56.077Z,102080.98
2019-03-25T06:25:23.750Z,102080.87
2019-03-25T06:27:51.348Z,102066.92
2019-03-25T06:30:19.582Z,102074.83
2019-03-25T06:33:12.489Z,102072.00
2019-03-25T06:35:35.917Z,102072.28
2019-03-25T06:38:03.635Z,102065.81
2019-03-25T06:40:31.291Z,102070.00
2019-03-25T06:45:25.608Z,102065.42
2019-03-25T06:47:53.195Z,102059.80
2019-03-25T06:50:20.791Z,102071.80
2019-03-25T06:52:48.468Z,102067.25
2019-03-25T06:55:16.405Z,102073.34
2019-03-25T06:57:43.997Z,102085.98
2019-03-25T07:00:12.642Z,102087.34
2019-03-25T07:02:40.236Z,102074.44
2019-03-25T07:05:08.169Z,102082.33
2019-03-25T07:07:35.833Z,102089.64
2019-03-25T07:10:04.036Z,102080.75
2019-03-25T07:12:31.695Z,102093.78
2019-03-25T07:14:59.476Z,102087.02
2019-03-25T07:17:27.061Z,102088.64
2019-03-25T07:19:54.647Z,102085.53
2019-03-25T07:22:45.891Z,102098.92
2019-03-25T07:25:13.485Z,102092.70
2019-03-25T07:27:41.074Z,102084.63
2019-03-25T07:30:11.334Z,102086.93
2019-03-25T07:32:38.707Z,102090.58
2019-03-25T07:35:06.777Z,102068.85
2019-03-25T07:37:34.519Z,102080.58
2019-03-25T07:40:02.211Z,102085.72
2019-03-25T07:42:29.806Z,102080.48
2019-03-25T07:44:57.645Z,102071.19
2019-03-25T07:47:25.281Z,102086.93
2019-03-25T07:49:52.898Z,102081.56
2019-03-25T07:52:20.544Z,102087.28
2019-03-25T07:54:48.213Z,102092.47
2019-03-25T07:57:16.000Z,102099.45
2019-03-25T07:59:43.616Z,102108.61
2019-03-25T08:02:11.200Z,102103.27
2019-03-25T08:04:39.959Z,102109.64
2019-03-25T08:07:07.526Z,102103.39
2019-03-25T08:09:35.278Z,102115.59
2019-03-25T08:12:02.926Z,102138.05
2019-03-25T08:14:30.528Z,102131.02
2019-03-25T08:16:58.103Z,102129.61
2019-03-25T08:19:25.704Z,102120.12
2019-03-25T08:21:53.291Z,102124.55
2019-03-25T08:24:20.865Z,102136.17
2019-03-25T08:26:48.480Z,102127.58
2019-03-25T08:29:40.124Z,102143.59
2019-03-25T08:32:07.761Z,102153.44
2019-03-25T08:34:35.347Z,102129.05
2019-03-25T08:37:04.424Z,102129.02
2019-03-25T08:39:32.204Z,102148.94
2019-03-25T08:41:59.890Z,102150.62
2019-03-25T08:44:27.638Z,102146.03
2019-03-25T08:46:55.293Z,102156.10
2019-03-25T08:49:23.135Z,102159.56
2019-03-25T08:51:50.829Z,102155.80
2019-03-25T08:54:18.802Z,102150.59
2019-03-25T08:56:46.636Z,102162.28
2019-03-25T08:59:14.270Z,102160.73
2019-03-25T09:01:41.990Z,102171.14
2019-03-25T09:04:50.375Z,102173.42
2019-03-25T09:07:18.010Z,102173.00
2019-03-25T09:09:45.610Z,102163.98
2019-03-25T09:12:13.232Z,102168.89
2019-03-25T09:14:40.887Z,102179.58
2019-03-25T09:17:08.560Z,102169.17
2019-03-25T09:19:36.155Z,102173.20
2019-03-25T09:22:04.017Z,102178.26
2019-03-25T09:24:33.030Z,102168.56
2019-03-25T09:27:00.803Z,102174.13
2019-03-25T09:29:29.575Z,102190.39
2019-03-25T09:31:57.173Z,102180.52
2019-03-25T09:34:24.757Z,102188.50
2019-03-25T09:36:52.409Z,102198.16
2019-03-25T09:39:31.903Z,102203.92
2019-03-25T09:41:59.562Z,102216.50
2019-03-25T09:44:27.188Z,102241.95
2019-03-25T09:46:54.848Z,102254.14
2019-03-25T09:49:22.428Z,102256.47
2019-03-25T09:51:52.740Z,102240.59
2019-03-25T09:54:19.568Z,102241.71
2019-03-25T09:56:47.279Z,102239.52
2019-03-25T09:59:14.934Z,102235.67
2019-03-25T10:01:42.518Z,102233.75
2019-03-25T10:04:10.212Z,102230.86
2019-03-25T10:06:38.053Z,102229.22
2019-03-25T10:09:09.348Z,102219.80
2019-03-25T10:11:36.993Z,102218.97
2019-03-25T10:14:04.599Z,102225.30
2019-03-25T10:16:32.182Z,102225.75
2019-03-25T10:19:00.891Z,102221.94
2019-03-25T10:21:28.534Z,102208.31
2019-03-25T10:23:56.134Z,102232.22
2019-03-25T10:26:23.710Z,102225.06
2019-03-25T10:28:51.437Z,102231.05
2019-03-25T10:31:19.029Z,102227.45
2019-03-25T10:33:46.643Z,102236.87
2019-03-25T10:36:14.265Z,102235.29
2019-03-25T10:38:41.886Z,102236.19
2019-03-25T10:41:09.599Z,102278.78
2019-03-25T10:43:37.344Z,102290.48
2019-03-25T10:46:05.206Z,102277.29
2019-03-25T10:48:32.852Z,102269.90
2019-03-25T10:51:00.459Z,102260.28
2019-03-25T10:53:28.100Z,102273.11
2019-03-25T10:55:55.699Z,102262.41
2019-03-25T10:58:23.293Z,102262.94
2019-03-25T11:00:50.902Z,102251.59
2019-03-25T11:03:18.502Z,102234.64
2019-03-25T11:05:46.698Z,102240.31
2019-03-25T11:08:14.288Z,102243.84
2019-03-25T11:10:41.907Z,102255.23
2019-03-25T11:13:09.508Z,102247.47
2019-03-25T11:15:37.093Z,102250.66
2019-03-25T11:18:05.854Z,102270.25
2019-03-25T11:20:33.625Z,102314.63
2019-03-25T11:23:01.373Z,102330.03
2019-03-25T11:25:29.003Z,102311.38
2019-03-25T11:27:56.602Z,102298.20
2019-03-25T11:30:48.123Z,102303.70
2019-03-25T11:33:15.722Z,102309.43
2019-03-25T11:35:43.331Z,102318.27
2019-03-25T11:38:10.978Z,102309.82
2019-03-25T11:40:38.565Z,102305.34
2019-03-25T11:43:06.256Z,102299.72
2019-03-25T11:45:33.904Z,102296.16
2019-03-25T11:48:01.599Z,102302.36
2019-03-25T11:50:29.318Z,102279.66
2019-03-25T11:52:56.984Z,102279.77
2019-03-25T11:55:24.620Z,102274.75
2019-03-25T11:57:52.313Z,102279.73
2019-03-25T12:00:20.027Z,102258.19
2019-03-25T12:02:47.753Z,102257.75
2019-03-25T12:05:15.353Z,102286.03
2019-03-25T12:07:43.192Z,102299.34
2019-03-25T12:10:11.137Z,102322.26
2019-03-25T12:12:38.739Z,102334.32
2019-03-25T12:15:07.470Z,102342.65
2019-03-25T12:17:35.278Z,102344.81
2019-03-25T12:20:03.981Z,102356.18
2019-03-25T12:22:31.610Z,102327.23
2019-03-25T12:24:59.203Z,102331.56
2019-03-25T12:27:35.763Z,102326.38
2019-03-25T12:30:03.589Z,102324.67
2019-03-25T12:32:31.178Z,102319.44
2019-03-25T12:34:58.844Z,102318.22
2019-03-25T12:37:26.456Z,102313.81
2019-03-25T12:39:54.139Z,102304.91
2019-03-25T12:42:21.873Z,102297.80
2019-03-25T12:44:49.455Z,102288.45
2019-03-25T12:47:17.104Z,102287.48
2019-03-25T12:49:44.691Z,102267.13
2019-03-25T12:52:12.330Z,102276.59
2019-03-25T12:54:39.935Z,102270.59
2019-03-25T12:57:07.537Z,102274.39
2019-03-25T12:59:41.178Z,102279.30
2019-03-25T13:02:04.698Z,102285.48
2019-03-25T13:04:47.629Z,102269.31
2019-03-25T13:07:19.251Z,102280.52
2019-03-25T13:10:05.108Z,102266.48
2019-03-25T13:12:52.727Z,102261.73
2019-03-25T13:15:21.039Z,102262.67
2019-03-25T13:17:50.738Z,102260.19
2019-03-25T13:20:22.680Z,102270.11
2019-03-25T13:22:52.510Z,102260.87
2019-03-25T13:25:22.419Z,102270.11
2019-03-25T13:27:52.419Z,102276.61
2019-03-25T13:30:20.660Z,102275.14
2019-03-25T13:32:48.616Z,102277.09
2019-03-25T13:35:18.690Z,102265.19
2019-03-25T13:37:48.719Z,102257.89
2019-03-25T13:40:36.884Z,102263.77
2019-03-25T13:43:05.947Z,102257.81
2019-03-25T13:45:35.761Z,102251.23
2019-03-25T13:48:05.784Z,102261.42
2019-03-25T13:50:35.542Z,102263.34
2019-03-25T13:53:05.483Z,102253.06
2019-03-25T13:55:35.481Z,102248.86
2019-03-25T13:58:05.428Z,102254.92
2019-03-25T14:00:42.682Z,102253.16
2019-03-25T14:03:11.240Z,102254.92
2019-03-25T14:05:39.579Z,102249.09
2019-03-25T14:08:07.526Z,102250.66
2019-03-25T14:10:35.279Z,102263.86
2019-03-25T14:13:02.896Z,102260.86
2019-03-25T14:15:30.491Z,102264.66
2019-03-25T14:17:58.277Z,102284.29
2019-03-25T14:20:25.939Z,102296.78
2019-03-25T14:22:53.546Z,102285.69
2019-03-25T14:25:21.190Z,102280.47
2019-03-25T14:27:48.766Z,102283.18
2019-03-25T14:30:16.799Z,102295.31
2019-03-25T14:32:56.813Z,102296.55
2019-03-25T14:35:25.638Z,102312.19
2019-03-25T14:37:53.261Z,102303.70
2019-03-25T14:40:22.023Z,102305.72
2019-03-25T14:42:49.733Z,102305.72
2019-03-25T14:45:26.058Z,102301.33
2019-03-25T14:47:47.021Z,102302.10
2019-03-25T14:50:14.923Z,102311.86
2019-03-25T14:52:42.600Z,102300.58
2019-03-25T14:55:10.292Z,102306.98
2019-03-25T14:57:38.025Z,102301.13
2019-03-25T15:00:06.640Z,102302.41
2019-03-25T15:02:34.325Z,102299.61
2019-03-25T15:05:01.997Z,102313.45
2019-03-25T15:07:29.636Z,102306.95
2019-03-25T15:09:57.379Z,102315.19
2019-03-25T15:12:25.365Z,102318.13
2019-03-25T15:14:52.973Z,102299.95
2019-03-25T15:17:20.580Z,102302.70
2019-03-25T15:19:48.203Z,102292.33
2019-03-25T15:22:16.147Z,102313.09
2019-03-25T15:24:43.780Z,102318.14
2019-03-25T15:27:11.425Z,102314.22
2019-03-25T15:29:39.063Z,102313.12
2019-03-25T15:32:06.769Z,102321.33
2019-03-25T15:34:34.526Z,102316.79
2019-03-25T15:37:02.161Z,102332.59
2019-03-25T15:39:29.856Z,102334.36
2019-03-25T15:41:57.488Z,102342.52
2019-03-25T15:44:25.211Z,102341.02
2019-03-25T15:46:56.020Z,102349.48
2019-03-25T15:49:22.377Z,102344.47
2019-03-25T15:51:50.038Z,102354.20
2019-03-25T15:54:17.766Z,102346.18
2019-03-25T15:56:45.417Z,102352.22
2019-03-25T15:59:13.053Z,102349.80
2019-03-25T16:01:40.666Z,102372.33
2019-03-25T16:04:08.294Z,102371.62
2019-03-25T16:06:35.950Z,102376.85
2019-03-25T16:09:06.134Z,102372.66
2019-03-25T16:11:33.743Z,102396.70
2019-03-25T16:14:01.376Z,102404.18
2019-03-25T16:16:28.998Z,102394.70
2019-03-25T16:18:56.686Z,102400.98
2019-03-25T16:21:24.428Z,102392.53
2019-03-25T16:23:52.083Z,102402.81
2019-03-25T16:26:19.668Z,102405.54
2019-03-25T16:28:47.304Z,102408.48
2019-03-25T16:31:14.941Z,102405.77
2019-03-25T16:33:42.947Z,102419.23
2019-03-25T16:36:10.535Z,102424.41
2019-03-25T16:38:38.219Z,102431.73
2019-03-25T16:41:05.814Z,102428.30
2019-03-25T16:43:33.393Z,102442.10
2019-03-25T16:46:01.062Z,102450.48
2019-03-25T16:48:28.792Z,102459.03
2019-03-25T16:50:56.635Z,102449.41
2019-03-25T16:53:24.437Z,102448.27
2019-03-25T16:55:52.103Z,102466.59
2019-03-25T16:58:19.690Z,102479.08
2019-03-25T17:00:47.295Z,102473.98
2019-03-25T17:03:14.919Z,102467.98
2019-03-25T17:05:42.633Z,102475.05
2019-03-25T17:08:10.248Z,102498.62
2019-03-25T17:10:37.988Z,102496.41
2019-03-25T17:13:05.642Z,102502.07
2019-03-25T17:15:33.313Z,102509.45
2019-03-25T17:18:00.927Z,102510.77
2019-03-25T17:20:28.590Z,102508.97
2019-03-25T17:22:56.196Z,102517.58
2019-03-25T17:25:23.793Z,102520.85
2019-03-25T17:27:51.436Z,102525.19
2019-03-25T17:30:19.227Z,102535.28
2019-03-25T17:32:46.920Z,102529.59
2019-03-25T17:35:14.640Z,102538.45
2019-03-25T17:37:42.266Z,102549.88
2019-03-25T17:40:09.983Z,102535.27
2019-03-25T17:42:37.783Z,102547.55
2019-03-25T17:45:06.403Z,102552.27
2019-03-25T17:47:34.148Z,102555.86
2019-03-25T17:50:01.825Z,102552.91
2019-03-25T17:52:29.531Z,102560.02
2019-03-25T17:54:59.373Z,102561.56
2019-03-25T17:57:27.000Z,102566.09
2019-03-25T17:59:54.633Z,102569.03
2019-03-25T18:02:22.279Z,102582.87
2019-03-25T18:04:49.933Z,102594.33
2019-03-25T18:07:17.528Z,102597.45
2019-03-25T18:09:45.252Z,102603.02
2019-03-25T18:12:12.883Z,102611.70
2019-03-25T18:14:40.537Z,102613.01
2019-03-25T18:17:08.178Z,102618.98
2019-03-25T18:19:36.029Z,102626.98
2019-03-25T18:22:03.784Z,102623.48
2019-03-25T18:24:31.530Z,102633.39
2019-03-25T18:26:59.136Z,102640.27
2019-03-25T18:29:26.778Z,102654.60
2019-03-25T18:31:54.400Z,102664.16
2019-03-25T18:34:22.005Z,102661.31
2019-03-25T18:36:49.613Z,102680.52
2019-03-25T18:39:17.441Z,102682.86
2019-03-25T18:41:45.040Z,102680.17
2019-03-25T18:44:12.823Z,102681.47
2019-03-25T18:46:40.438Z,102691.27
2019-03-25T18:49:08.156Z,102691.67
2019-03-25T18:51:36.140Z,102694.01
2019-03-25T18:54:03.858Z,102701.48
2019-03-25T18:56:31.601Z,102711.78
2019-03-25T18:58:59.199Z,102710.78
2019-03-25T19:01:27.149Z,102720.06
2019-03-25T19:03:55.263Z,102721.87
2019-03-25T19:06:23.140Z,102728.14
2019-03-25T19:08:51.053Z,102736.81
2019-03-25T19:11:18.688Z,102736.81
2019-03-25T19:13:46.363Z,102740.04
2019-03-25T19:16:14.130Z,102734.29
2019-03-25T19:18:41.810Z,102732.38
2019-03-25T19:21:09.459Z,102739.64
2019-03-25T19:23:37.182Z,102743.38
2019-03-25T19:26:04.995Z,102753.86
2019-03-25T19:28:32.632Z,102759.20
2019-03-25T19:31:00.545Z,102759.71
2019-03-25T19:33:28.283Z,102767.06
2019-03-25T19:35:56.015Z,102763.41
2019-03-25T19:38:23.718Z,102770.36
2019-03-25T19:40:51.466Z,102775.50
2019-03-25T19:43:19.111Z,102780.03
2019-03-25T19:45:46.748Z,102787.08
2019-03-25T19:48:16.467Z,102784.27
2019-03-25T19:50:44.178Z,102792.42
2019-03-25T19:53:18.985Z,102793.13
2019-03-25T19:55:41.414Z,102799.98
2019-03-25T19:58:10.818Z,102797.06
2019-03-25T20:00:39.471Z,102799.07
2019-03-25T20:03:07.327Z,102795.95
2019-03-25T20:05:35.243Z,102799.87
2019-03-25T20:08:03.169Z,102800.68
2019-03-25T20:10:32.608Z,102798.95
2019-03-25T20:13:00.336Z,102801.38
2019-03-25T20:15:32.663Z,102804.50
2019-03-25T20:17:58.980Z,102809.63
2019-03-25T20:20:26.693Z,102813.97
2019-03-25T20:22:54.410Z,102815.17
2019-03-25T20:25:22.113Z,102823.73
2019-03-25T20:27:49.732Z,102831.38
2019-03-25T20:30:25.764Z,102832.98
2019-03-25T20:32:53.470Z,102835.39
2019-03-25T20:35:21.140Z,102837.99
2019-03-25T20:37:48.808Z,102839.09
2019-03-25T20:40:16.551Z,102846.13
2019-03-25T20:42:44.218Z,102848.31
2019-03-25T20:45:12.458Z,102853.13
2019-03-25T20:47:40.099Z,102862.37
2019-03-25T20:50:23.215Z,102865.17
2019-03-25T20:52:50.995Z,102865.86
2019-03-25T20:55:18.660Z,102862.31
2019-03-25T20:57:46.315Z,102868.52
2019-03-25T21:00:14.361Z,102875.97
2019-03-25T21:02:45.190Z,102881.39
2019-03-25T21:05:11.922Z,102888.52
2019-03-25T21:07:39.652Z,102893.63
2019-03-25T21:10:07.486Z,102894.32
2019-03-25T21:12:35.205Z,102902.28
2019-03-25T21:15:22.502Z,102906.09
2019-03-25T21:17:50.254Z,102919.28
2019-03-25T21:20:17.982Z,102916.89
2019-03-25T21:22:45.598Z,102922.13
2019-03-25T21:25:13.276Z,102920.12
2019-03-25T21:27:40.981Z,102929.69
2019-03-25T21:30:09.788Z,102931.83
2019-03-25T21:32:37.484Z,102930.92
2019-03-25T21:35:05.679Z,102931.14
2019-03-25T21:37:33.450Z,102937.00
2019-03-25T21:40:01.073Z,102940.30
2019-03-25T21:42:29.283Z,102946.05
2019-03-25T21:44:57.192Z,102955.83
2019-03-25T21:47:24.881Z,102959.35
2019-03-25T21:49:52.632Z,102957.53
2019-03-25T21:52:20.620Z,102961.46
2019-03-25T21:54:48.359Z,102965.17
2019-03-25T21:57:16.019Z,102968.29
2019-03-25T21:59:43.578Z,102966.25
2019-03-25T22:02:11.242Z,102961.42
2019-03-25T22:04:38.882Z,102955.78
2019-03-25T22:07:06.511Z,102961.64
2019-03-25T22:09:34.163Z,102961.13
2019-03-25T22:12:01.774Z,102969.78
2019-03-25T22:14:29.358Z,102973.08
2019-03-25T22:16:57.059Z,102977.41
2019-03-25T22:19:24.723Z,102980.02
2019-03-25T22:21:52.386Z,102981.22
2019-03-25T22:24:25.141Z,102985.55
2019-03-25T22:26:52.813Z,102986.45
2019-03-25T22:29:20.477Z,102987.98
2019-03-25T22:31:48.145Z,102990.66
2019-03-25T22:34:15.783Z,102999.82
2019-03-25T22:36:43.387Z,103005.45
2019-03-25T22:39:11.035Z,103002.44
2019-03-25T22:41:38.696Z,103011.38
2019-03-25T22:44:06.417Z,103007.96
2019-03-25T22:46:34.100Z,103011.38
2019-03-25T22:49:01.749Z,103012.68
2019-03-25T22:51:29.381Z,103012.17
2019-03-25T22:53:57.001Z,103018.25
2019-03-25T22:56:24.716Z,103022.06
2019-03-25T22:58:52.407Z,103016.60
2019-03-25T23:01:20.173Z,103028.78
2019-03-25T23:03:47.828Z,103025.77
2019-03-25T23:06:15.432Z,103026.45
2019-03-25T23:08:43.026Z,103024.62
2019-03-25T23:11:10.658Z,103022.92
2019-03-25T23:13:38.245Z,103028.95
2019-03-25T23:16:05.846Z,103026.45
2019-03-25T23:18:33.468Z,103032.08
2019-03-25T23:21:01.096Z,103031.05
2019-03-25T23:23:28.692Z,103028.49
2019-03-25T23:25:57.385Z,103030.82
2019-03-25T23:31:41.470Z,103034.34
2019-03-25T23:34:09.066Z,103036.85
2019-03-25T23:36:36.652Z,103040.95
2019-03-25T23:39:06.326Z,103044.25
2019-03-25T23:41:34.031Z,103039.19
2019-03-25T23:44:01.652Z,103033.84
2019-03-25T23:46:38.325Z,103042.09
2019-03-25T23:49:05.925Z,103034.02
2019-03-25T23:51:33.536Z,103037.70
2019-03-25T23:54:29.861Z,103034.46
2019-03-25T23:56:57.446Z,103039.70
